createdAt,value
2017-08-31T00:01:07.562Z,20.67
2017-08-31T00:02:29.063Z,20.66
2017-08-31T00:03:51.892Z,20.59
2017-08-31T00:05:13.715Z,20.59
2017-08-31T00:06:35.863Z,20.57
2017-08-31T00:07:58.030Z,20.52
2017-08-31T00:09:20.443Z,20.5
2017-08-31T00:10:42.913Z,20.5
2017-08-31T00:12:04.094Z,20.57
2017-08-31T00:13:26.255Z,20.62
2017-08-31T00:14:48.175Z,20.61
2017-08-31T00:16:10.342Z,20.77
2017-08-31T00:17:32.162Z,20.8
2017-08-31T00:18:54.332Z,20.76
2017-08-31T00:20:16.413Z,20.79
2017-08-31T00:21:38.585Z,20.84
2017-08-31T00:23:00.752Z,20.87
2017-08-31T00:24:22.626Z,20.92
2017-08-31T00:25:45.133Z,20.8
2017-08-31T00:27:07.309Z,20.87
2017-08-31T00:28:29.462Z,20.79
2017-08-31T00:29:51.303Z,20.85
2017-08-31T00:31:13.284Z,20.8
2017-08-31T00:32:35.133Z,20.8
2017-08-31T00:33:56.966Z,20.73
2017-08-31T00:35:18.480Z,20.73
2017-08-31T00:36:40.712Z,20.73
2017-08-31T00:38:02.889Z,20.72
2017-08-31T00:39:24.402Z,20.79
2017-08-31T00:40:46.302Z,20.66
2017-08-31T00:42:09.272Z,20.79
2017-08-31T00:43:31.682Z,20.73
2017-08-31T00:44:53.173Z,20.64
2017-08-31T00:46:14.678Z,20.61
2017-08-31T00:47:36.853Z,20.54
2017-08-31T00:48:58.047Z,20.51
2017-08-31T00:50:20.552Z,20.29
2017-08-31T00:51:42.366Z,20.32
2017-08-31T00:53:04.553Z,20.26
2017-08-31T00:54:26.364Z,20.26
2017-08-31T00:55:48.839Z,20.18
2017-08-31T00:57:10.992Z,20.08
2017-08-31T00:58:32.904Z,20.1
2017-08-31T00:59:55.542Z,20.03
2017-08-31T01:01:17.393Z,20.11
2017-08-31T01:02:39.865Z,20.11
2017-08-31T01:04:01.759Z,20.11
2017-08-31T01:05:23.623Z,20.06
2017-08-31T01:06:45.603Z,20.01
2017-08-31T01:08:07.463Z,20.01
2017-08-31T01:09:29.475Z,20.08
2017-08-31T01:10:51.675Z,20.01
2017-08-31T01:12:13.821Z,20.02
2017-08-31T01:13:35.443Z,20.01
2017-08-31T01:14:58.383Z,20.08
2017-08-31T01:16:20.249Z,20.14
2017-08-31T01:17:42.389Z,20.1
2017-08-31T01:19:03.583Z,20.16
2017-08-31T01:20:26.408Z,20.28
2017-08-31T01:21:49.061Z,20.26
2017-08-31T01:23:11.578Z,20.18
2017-08-31T01:24:34.041Z,20.1
2017-08-31T01:25:56.535Z,20.13
2017-08-31T01:27:18.399Z,20.11
2017-08-31T01:28:40.854Z,20.1
2017-08-31T01:30:02.044Z,20.1
2017-08-31T01:31:24.243Z,20.21
2017-08-31T01:32:45.753Z,20.16
2017-08-31T01:34:07.903Z,20.28
2017-08-31T01:35:29.787Z,20.21
2017-08-31T01:36:52.297Z,20.21
2017-08-31T01:38:14.461Z,20.18
2017-08-31T01:39:36.313Z,20.21
2017-08-31T01:40:57.825Z,20.2
2017-08-31T01:42:19.999Z,20.17
2017-08-31T01:43:41.903Z,20.23
2017-08-31T01:45:04.395Z,20.11
2017-08-31T01:46:26.333Z,20.11
2017-08-31T01:47:48.844Z,20.14
2017-08-31T01:49:10.681Z,20.11
2017-08-31T01:50:32.984Z,20.06
2017-08-31T01:51:55.449Z,20.03
2017-08-31T01:53:18.233Z,20.06
2017-08-31T01:54:40.395Z,20.03
2017-08-31T01:56:02.564Z,19.96
2017-08-31T01:57:25.051Z,19.98
2017-08-31T01:58:47.887Z,19.92
2017-08-31T02:00:10.372Z,19.92
2017-08-31T02:01:32.603Z,19.87
2017-08-31T02:02:53.794Z,19.71
2017-08-31T02:04:16.272Z,19.76
2017-08-31T02:05:38.142Z,19.73
2017-08-31T02:06:59.988Z,19.69
2017-08-31T02:08:21.834Z,19.68
2017-08-31T02:09:44.080Z,19.58
2017-08-31T02:11:05.910Z,19.61
2017-08-31T02:12:27.746Z,19.54
2017-08-31T02:13:49.595Z,19.54
2017-08-31T02:15:11.493Z,19.54
2017-08-31T02:16:33.972Z,19.56
2017-08-31T02:17:55.963Z,19.56
2017-08-31T02:19:17.485Z,19.46
2017-08-31T02:20:39.348Z,19.44
2017-08-31T02:22:00.872Z,19.47
2017-08-31T02:23:22.697Z,19.47
2017-08-31T02:24:44.528Z,19.43
2017-08-31T02:26:07.073Z,19.48
2017-08-31T02:27:28.601Z,19.46
2017-08-31T02:28:50.442Z,19.37
2017-08-31T02:30:12.330Z,19.46
2017-08-31T02:31:34.843Z,19.46
2017-08-31T02:32:56.998Z,19.47
2017-08-31T02:34:18.902Z,19.51
2017-08-31T02:35:41.044Z,19.54
2017-08-31T02:37:03.246Z,19.54
2017-08-31T02:38:24.770Z,19.58
2017-08-31T02:39:46.410Z,19.55
2017-08-31T02:41:08.241Z,19.55
2017-08-31T02:42:30.373Z,19.56
2017-08-31T02:43:52.343Z,19.54
2017-08-31T02:45:13.857Z,19.54
2017-08-31T02:46:36.047Z,19.58
2017-08-31T02:47:58.684Z,19.44
2017-08-31T02:49:21.176Z,19.44
2017-08-31T02:50:43.374Z,19.44
2017-08-31T02:52:05.833Z,19.4
2017-08-31T02:53:28.084Z,19.36
2017-08-31T02:54:50.574Z,19.33
2017-08-31T02:56:13.020Z,19.33
2017-08-31T02:57:35.166Z,19.21
2017-08-31T02:58:57.266Z,19.29
2017-08-31T03:00:19.422Z,19.23
2017-08-31T03:01:41.383Z,19.16
2017-08-31T03:03:03.522Z,19.14
2017-08-31T03:04:26.033Z,19.16
2017-08-31T03:05:47.858Z,19.18
2017-08-31T03:07:09.457Z,19.1
2017-08-31T03:08:31.278Z,19.06
2017-08-31T03:09:54.092Z,19.13
2017-08-31T03:11:15.911Z,19.04
2017-08-31T03:12:38.203Z,19.06
2017-08-31T03:14:00.676Z,19.04
2017-08-31T03:15:22.172Z,18.98
2017-08-31T03:16:43.034Z,18.95
2017-08-31T03:18:05.173Z,18.98
2017-08-31T03:19:26.743Z,18.94
2017-08-31T03:20:48.292Z,18.95
2017-08-31T03:22:10.452Z,18.98
2017-08-31T03:23:31.959Z,19.02
2017-08-31T03:24:54.106Z,18.94
2017-08-31T03:26:16.383Z,18.91
2017-08-31T03:27:38.515Z,18.88
2017-08-31T03:29:01.074Z,18.88
2017-08-31T03:30:23.572Z,18.9
2017-08-31T03:31:45.433Z,18.85
2017-08-31T03:33:07.642Z,18.85
2017-08-31T03:34:29.812Z,18.88
2017-08-31T03:35:51.673Z,18.85
2017-08-31T03:37:14.193Z,18.81
2017-08-31T03:38:36.343Z,18.82
2017-08-31T03:39:58.175Z,18.9
2017-08-31T03:41:20.393Z,18.87
2017-08-31T03:42:42.940Z,18.91
2017-08-31T03:44:05.420Z,18.87
2017-08-31T03:45:27.682Z,18.81
2017-08-31T03:46:49.653Z,18.84
2017-08-31T03:48:12.159Z,18.92
2017-08-31T03:49:33.705Z,18.9
2017-08-31T03:50:55.206Z,18.87
2017-08-31T03:52:17.360Z,18.91
2017-08-31T03:53:39.553Z,18.9
2017-08-31T03:55:02.025Z,18.95
2017-08-31T03:56:23.853Z,18.87
2017-08-31T03:57:46.425Z,18.91
2017-08-31T03:59:08.598Z,18.9
2017-08-31T04:00:30.911Z,18.84
2017-08-31T04:01:53.388Z,18.84
2017-08-31T04:03:15.224Z,18.73
2017-08-31T04:04:37.197Z,18.73
2017-08-31T04:05:59.702Z,18.73
2017-08-31T04:07:21.992Z,18.73
2017-08-31T04:08:43.294Z,18.76
2017-08-31T04:10:05.465Z,18.63
2017-08-31T04:11:27.725Z,18.55
2017-08-31T04:12:49.893Z,18.52
2017-08-31T04:14:11.692Z,18.62
2017-08-31T04:15:33.932Z,18.57
2017-08-31T04:16:55.759Z,18.63
2017-08-31T04:18:17.606Z,18.66
2017-08-31T04:19:39.428Z,18.6
2017-08-31T04:21:01.992Z,18.6
2017-08-31T04:22:24.470Z,18.55
2017-08-31T04:23:46.393Z,18.58
2017-08-31T04:25:08.874Z,18.51
2017-08-31T04:26:31.293Z,18.51
2017-08-31T04:27:53.768Z,18.52
2017-08-31T04:29:15.375Z,18.5
2017-08-31T04:30:36.902Z,18.41
2017-08-31T04:31:59.033Z,18.5
2017-08-31T04:33:21.181Z,18.42
2017-08-31T04:34:42.672Z,18.44
2017-08-31T04:36:04.841Z,18.41
2017-08-31T04:37:27.559Z,18.37
2017-08-31T04:38:49.723Z,18.39
2017-08-31T04:40:11.873Z,18.47
2017-08-31T04:41:34.034Z,18.42
2017-08-31T04:42:56.533Z,18.3
2017-08-31T04:44:18.365Z,18.33
2017-08-31T04:45:40.193Z,18.35
2017-08-31T04:47:02.685Z,18.32
2017-08-31T04:48:24.824Z,18.25
2017-08-31T04:49:46.982Z,18.33
2017-08-31T04:51:07.836Z,18.32
2017-08-31T04:52:30.112Z,18.32
2017-08-31T04:53:51.983Z,18.3
2017-08-31T04:55:13.923Z,18.3
2017-08-31T04:56:36.150Z,18.32
2017-08-31T04:57:58.629Z,18.27
2017-08-31T04:59:20.487Z,18.33
2017-08-31T05:00:42.354Z,18.27
2017-08-31T05:02:03.863Z,18.36
2017-08-31T05:03:25.691Z,18.29
2017-08-31T05:04:48.106Z,18.33
2017-08-31T05:06:10.330Z,18.35
2017-08-31T05:07:32.475Z,18.35
2017-08-31T05:08:53.983Z,18.35
2017-08-31T05:10:16.156Z,18.35
2017-08-31T05:11:38.309Z,18.37
2017-08-31T05:13:00.299Z,18.29
2017-08-31T05:14:21.856Z,18.23
2017-08-31T05:15:44.090Z,18.11
2017-08-31T05:17:05.913Z,18.1
2017-08-31T05:18:27.423Z,17.95
2017-08-31T05:19:49.661Z,17.95
2017-08-31T05:21:12.413Z,17.82
2017-08-31T05:22:34.261Z,17.82
2017-08-31T05:23:56.115Z,17.82
2017-08-31T05:25:18.581Z,17.82
2017-08-31T05:26:41.419Z,17.81
2017-08-31T05:28:02.662Z,17.81
2017-08-31T05:29:24.873Z,17.82
2017-08-31T05:30:46.071Z,17.81
2017-08-31T05:32:08.281Z,17.77
2017-08-31T05:33:30.434Z,17.78
2017-08-31T05:34:52.899Z,17.74
2017-08-31T05:36:15.204Z,17.79
2017-08-31T05:37:37.577Z,17.82
2017-08-31T05:38:59.463Z,17.84
2017-08-31T05:40:21.291Z,17.84
2017-08-31T05:41:43.163Z,17.95
2017-08-31T05:43:05.043Z,17.87
2017-08-31T05:44:26.558Z,17.84
2017-08-31T05:45:48.723Z,17.84
2017-08-31T05:47:10.563Z,17.92
2017-08-31T05:48:32.878Z,17.89
2017-08-31T05:49:55.074Z,17.92
2017-08-31T05:51:16.894Z,17.99
2017-08-31T05:52:38.733Z,18.11
2017-08-31T05:54:01.266Z,18.11
2017-08-31T05:55:23.776Z,18.03
2017-08-31T05:56:46.254Z,18.23
2017-08-31T05:58:08.484Z,18.26
2017-08-31T05:59:31.009Z,18.14
2017-08-31T06:00:53.434Z,18.27
2017-08-31T06:02:15.593Z,18.15
2017-08-31T06:03:37.166Z,18.03
2017-08-31T06:04:58.915Z,18.11
2017-08-31T06:06:20.884Z,18.14
2017-08-31T06:07:42.631Z,17.96
2017-08-31T06:09:04.490Z,17.86
2017-08-31T06:10:26.684Z,17.77
2017-08-31T06:11:48.834Z,17.75
2017-08-31T06:13:10.665Z,17.64
2017-08-31T06:14:33.163Z,17.66
2017-08-31T06:15:55.035Z,17.55
2017-08-31T06:17:17.503Z,17.56
2017-08-31T06:18:38.816Z,17.54
2017-08-31T06:20:00.996Z,17.55
2017-08-31T06:21:23.193Z,17.55
2017-08-31T06:22:45.677Z,17.63
2017-08-31T06:24:07.844Z,17.75
2017-08-31T06:25:30.193Z,17.81
2017-08-31T06:26:52.114Z,17.79
2017-08-31T06:28:13.993Z,17.79
2017-08-31T06:29:35.835Z,17.68
2017-08-31T06:30:58.127Z,17.66
2017-08-31T06:32:20.334Z,17.71
2017-08-31T06:33:42.504Z,17.56
2017-08-31T06:35:04.653Z,17.55
2017-08-31T06:36:26.798Z,17.52
2017-08-31T06:37:49.184Z,17.58
2017-08-31T06:39:13.384Z,17.52
2017-08-31T06:40:36.001Z,17.48
2017-08-31T06:41:58.472Z,17.52
2017-08-31T06:43:20.233Z,17.56
2017-08-31T06:44:42.064Z,17.54
2017-08-31T06:46:04.543Z,17.59
2017-08-31T06:47:26.096Z,17.48
2017-08-31T06:48:47.643Z,17.55
2017-08-31T06:50:09.947Z,17.49
2017-08-31T06:51:32.100Z,17.48
2017-08-31T06:52:54.245Z,17.51
2017-08-31T06:54:16.444Z,17.48
2017-08-31T06:55:38.587Z,17.41
2017-08-31T06:57:00.864Z,17.46
2017-08-31T06:58:23.029Z,17.28
2017-08-31T06:59:44.924Z,17.38
2017-08-31T07:01:07.114Z,17.3
2017-08-31T07:02:29.594Z,17.31
2017-08-31T07:03:52.716Z,17.34
2017-08-31T07:05:15.732Z,17.33
2017-08-31T07:06:37.895Z,17.4
2017-08-31T07:07:59.745Z,17.37
2017-08-31T07:09:21.894Z,17.51
2017-08-31T07:10:44.674Z,17.48
2017-08-31T07:12:06.185Z,17.56
2017-08-31T07:13:28.028Z,17.54
2017-08-31T07:14:49.857Z,17.55
2017-08-31T07:16:12.068Z,17.7
2017-08-31T07:17:34.239Z,17.75
2017-08-31T07:18:56.071Z,17.78
2017-08-31T07:20:18.656Z,17.92
2017-08-31T07:21:41.282Z,18
2017-08-31T07:23:02.781Z,17.95
2017-08-31T07:24:25.036Z,18.07
2017-08-31T07:25:47.205Z,18.07
2017-08-31T07:27:10.002Z,18.11
2017-08-31T07:28:32.438Z,18.08
2017-08-31T07:29:53.945Z,18.15
2017-08-31T07:31:15.482Z,18.27
2017-08-31T07:32:37.654Z,18.17
2017-08-31T07:34:00.168Z,18.27
2017-08-31T07:35:21.997Z,18.23
2017-08-31T07:36:44.156Z,18.26
2017-08-31T07:38:06.653Z,18.32
2017-08-31T07:39:28.493Z,18.33
2017-08-31T07:40:50.693Z,18.32
2017-08-31T07:42:12.533Z,18.32
2017-08-31T07:43:34.551Z,18.29
2017-08-31T07:44:56.715Z,18.25
2017-08-31T07:46:18.599Z,18.25
2017-08-31T07:47:40.453Z,18.12
2017-08-31T07:49:03.164Z,18.26
2017-08-31T07:50:25.644Z,18.14
2017-08-31T07:51:48.169Z,18.21
2017-08-31T07:53:10.671Z,18.26
2017-08-31T07:54:33.136Z,18.17
2017-08-31T07:55:55.122Z,18.18
2017-08-31T07:57:16.956Z,18.23
2017-08-31T07:58:39.094Z,18.3
2017-08-31T08:00:01.573Z,18.42
2017-08-31T08:01:24.064Z,18.51
2017-08-31T08:02:46.544Z,18.6
2017-08-31T08:04:08.362Z,18.72
2017-08-31T08:05:29.952Z,18.76
2017-08-31T08:06:51.780Z,18.76
2017-08-31T08:08:14.034Z,18.67
2017-08-31T08:09:36.575Z,18.54
2017-08-31T08:10:58.443Z,18.52
2017-08-31T08:12:20.592Z,18.66
2017-08-31T08:13:42.860Z,18.54
2017-08-31T08:15:04.733Z,18.62
2017-08-31T08:16:27.456Z,18.54
2017-08-31T08:17:49.281Z,18.52
2017-08-31T08:19:10.473Z,18.62
2017-08-31T08:20:32.623Z,18.55
2017-08-31T08:21:54.752Z,18.63
2017-08-31T08:23:17.005Z,18.65
2017-08-31T08:24:39.473Z,18.66
2017-08-31T08:26:01.624Z,18.62
2017-08-31T08:27:24.083Z,18.72
2017-08-31T08:28:46.053Z,18.76
2017-08-31T08:30:08.553Z,18.7
2017-08-31T08:31:30.070Z,18.6
2017-08-31T08:32:52.851Z,18.55
2017-08-31T08:34:15.100Z,18.42
2017-08-31T08:35:37.262Z,18.32
2017-08-31T08:36:59.469Z,18.25
2017-08-31T08:38:22.051Z,18.29
2017-08-31T08:39:43.903Z,18.21
2017-08-31T08:41:05.843Z,18.21
2017-08-31T08:42:28.003Z,18.21
2017-08-31T08:43:50.754Z,18.42
2017-08-31T08:45:12.906Z,18.55
2017-08-31T08:46:34.752Z,18.66
2017-08-31T08:47:57.242Z,18.5
2017-08-31T08:49:19.375Z,18.5
2017-08-31T08:50:41.970Z,18.32
2017-08-31T08:52:04.123Z,18.3
2017-08-31T08:53:25.313Z,18.29
2017-08-31T08:54:47.503Z,18.25
2017-08-31T08:56:10.038Z,18.18
2017-08-31T08:57:31.881Z,18.23
2017-08-31T08:58:53.384Z,18.25
2017-08-31T09:00:15.802Z,18.11
2017-08-31T09:01:37.981Z,18.18
2017-08-31T09:03:00.540Z,18.2
2017-08-31T09:04:22.113Z,18.23
2017-08-31T09:05:44.510Z,18.2
2017-08-31T09:07:07.006Z,18.21
2017-08-31T09:08:29.487Z,18.2
2017-08-31T09:09:51.664Z,18.35
2017-08-31T09:11:13.910Z,18.62
2017-08-31T09:12:36.093Z,18.73
2017-08-31T09:13:57.721Z,19.08
2017-08-31T09:15:19.886Z,19.21
2017-08-31T09:16:42.946Z,19.19
2017-08-31T09:18:05.121Z,19.23
2017-08-31T09:19:26.683Z,19.33
2017-08-31T09:20:48.513Z,19.14
2017-08-31T09:22:11.307Z,18.94
2017-08-31T09:23:34.001Z,18.76
2017-08-31T09:24:56.147Z,18.54
2017-08-31T09:26:17.983Z,18.2
2017-08-31T09:27:40.495Z,18.14
2017-08-31T09:29:02.972Z,17.97
2017-08-31T09:30:24.903Z,17.9
2017-08-31T09:31:46.746Z,17.93
2017-08-31T09:33:08.591Z,18
2017-08-31T09:34:30.415Z,18.03
2017-08-31T09:35:52.877Z,18.15
2017-08-31T09:37:15.367Z,18.3
2017-08-31T09:38:37.598Z,18.65
2017-08-31T09:39:59.431Z,18.8
2017-08-31T09:41:21.017Z,19.02
2017-08-31T09:42:42.835Z,19.1
2017-08-31T09:44:04.990Z,19.06
2017-08-31T09:45:26.519Z,18.85
2017-08-31T09:46:48.372Z,18.69
2017-08-31T09:48:10.974Z,18.44
2017-08-31T09:49:34.084Z,18.32
2017-08-31T09:50:55.907Z,18.27
2017-08-31T09:52:17.422Z,18.39
2017-08-31T09:53:38.949Z,18.48
2017-08-31T09:55:01.096Z,18.72
2017-08-31T09:56:22.276Z,18.8
2017-08-31T09:57:44.400Z,18.82
2017-08-31T09:59:06.869Z,18.66
2017-08-31T10:00:29.691Z,18.41
2017-08-31T10:01:52.190Z,18.2
2017-08-31T10:03:13.374Z,18.32
2017-08-31T10:04:35.898Z,18.1
2017-08-31T10:05:58.646Z,18.1
2017-08-31T10:07:20.801Z,18.15
2017-08-31T10:08:42.414Z,18.27
2017-08-31T10:10:04.586Z,18.52
2017-08-31T10:11:27.028Z,18.88
2017-08-31T10:12:49.500Z,19.04
2017-08-31T10:14:12.104Z,19.14
2017-08-31T10:15:34.253Z,19.06
2017-08-31T10:16:56.996Z,19.07
2017-08-31T10:18:18.552Z,19.32
2017-08-31T10:19:40.393Z,19.47
2017-08-31T10:21:02.862Z,19.56
2017-08-31T10:22:24.952Z,19.91
2017-08-31T10:23:47.427Z,20.03
2017-08-31T10:25:09.583Z,20.48
2017-08-31T10:26:31.144Z,20.85
2017-08-31T10:27:53.536Z,21.03
2017-08-31T10:29:15.690Z,21.24
2017-08-31T10:30:37.890Z,21.32
2017-08-31T10:32:00.046Z,21.28
2017-08-31T10:33:22.451Z,21.29
2017-08-31T10:34:44.318Z,21.31
2017-08-31T10:36:05.819Z,21.32
2017-08-31T10:37:27.382Z,21.19
2017-08-31T10:38:49.516Z,21.22
2017-08-31T10:40:11.106Z,21.31
2017-08-31T10:41:32.976Z,21.13
2017-08-31T10:42:55.454Z,21.29
2017-08-31T10:44:18.083Z,21.31
2017-08-31T10:45:40.234Z,21.37
2017-08-31T10:47:02.385Z,21.65
2017-08-31T10:48:23.883Z,22.15
2017-08-31T10:49:46.303Z,22.54
2017-08-31T10:51:08.157Z,22.28
2017-08-31T10:52:30.319Z,22.35
2017-08-31T10:53:52.012Z,22.15
2017-08-31T10:55:14.625Z,22.02
2017-08-31T10:56:36.869Z,21.92
2017-08-31T10:57:58.381Z,22
2017-08-31T10:59:20.541Z,21.84
2017-08-31T11:00:43.044Z,22.09
2017-08-31T11:02:05.213Z,21.96
2017-08-31T11:03:27.732Z,21.91
2017-08-31T11:04:50.304Z,21.67
2017-08-31T11:06:12.447Z,21.64
2017-08-31T11:07:33.983Z,21.58
2017-08-31T11:08:56.151Z,21.5
2017-08-31T11:10:18.657Z,21.29
2017-08-31T11:11:41.445Z,21.43
2017-08-31T11:13:03.928Z,21.34
2017-08-31T11:14:26.105Z,21.34
2017-08-31T11:15:48.258Z,21.69
2017-08-31T11:17:10.738Z,21.84
2017-08-31T11:18:33.224Z,21.88
2017-08-31T11:19:54.744Z,21.92
2017-08-31T11:21:17.115Z,21.94
2017-08-31T11:22:39.641Z,21.53
2017-08-31T11:24:01.804Z,21.06
2017-08-31T11:25:23.673Z,20.32
2017-08-31T11:26:45.576Z,19.94
2017-08-31T11:28:08.923Z,19.81
2017-08-31T11:29:32.196Z,19.73
2017-08-31T11:30:55.154Z,19.98
2017-08-31T11:32:17.830Z,20.16
2017-08-31T11:33:39.858Z,20.39
2017-08-31T11:35:02.467Z,20.61
2017-08-31T11:36:25.509Z,20.99
2017-08-31T11:37:47.954Z,21.29
2017-08-31T11:39:10.415Z,21.37
2017-08-31T11:40:32.624Z,21.32
2017-08-31T11:41:54.768Z,21.21
2017-08-31T11:43:17.373Z,21.14
2017-08-31T11:44:39.467Z,20.94
2017-08-31T11:46:01.774Z,20.8
2017-08-31T11:47:23.941Z,20.76
2017-08-31T11:48:46.411Z,20.74
2017-08-31T11:50:08.659Z,20.97
2017-08-31T11:51:30.822Z,21.14
2017-08-31T11:52:52.784Z,21.22
2017-08-31T11:54:15.283Z,21.28
2017-08-31T11:55:37.403Z,21.46
2017-08-31T11:56:58.915Z,21.42
2017-08-31T11:58:21.405Z,21.21
2017-08-31T11:59:43.237Z,21.17
2017-08-31T12:01:05.324Z,21.16
2017-08-31T12:02:27.653Z,21.17
2017-08-31T12:03:49.893Z,21.16
2017-08-31T12:05:12.403Z,21.04
2017-08-31T12:06:34.613Z,21.03
2017-08-31T12:07:56.795Z,21.22
2017-08-31T12:09:18.783Z,21.04
2017-08-31T12:10:40.372Z,21.01
2017-08-31T12:12:02.463Z,20.97
2017-08-31T12:13:24.025Z,20.99
2017-08-31T12:14:46.193Z,20.98
2017-08-31T12:16:07.814Z,20.99
2017-08-31T12:17:30.693Z,21.27
2017-08-31T12:18:53.190Z,21.29
2017-08-31T12:20:15.212Z,21.34
2017-08-31T12:21:37.375Z,20.99
2017-08-31T12:23:00.201Z,21.03
2017-08-31T12:24:22.051Z,20.87
2017-08-31T12:25:43.902Z,21.12
2017-08-31T12:27:06.072Z,21.19
2017-08-31T12:28:28.880Z,21.47
2017-08-31T12:29:51.043Z,21.4
2017-08-31T12:31:13.266Z,21.71
2017-08-31T12:32:35.433Z,21.72
2017-08-31T12:33:57.588Z,21.56
2017-08-31T12:35:19.483Z,21.42
2017-08-31T12:36:41.753Z,21.14
2017-08-31T12:38:03.923Z,20.99
2017-08-31T12:39:26.022Z,20.97
2017-08-31T12:40:47.965Z,20.88
2017-08-31T12:42:09.825Z,20.94
2017-08-31T12:43:31.992Z,20.82
2017-08-31T12:44:54.265Z,20.76
2017-08-31T12:46:16.785Z,20.82
2017-08-31T12:47:38.971Z,20.84
2017-08-31T12:49:01.120Z,20.89
2017-08-31T12:50:23.659Z,21.22
2017-08-31T12:51:45.805Z,21.17
2017-08-31T12:53:08.369Z,21.16
2017-08-31T12:54:30.536Z,21.12
2017-08-31T12:55:52.880Z,21.01
2017-08-31T12:57:14.733Z,20.89
2017-08-31T12:58:36.574Z,20.87
2017-08-31T12:59:59.055Z,20.76
2017-08-31T13:01:21.182Z,20.54
2017-08-31T13:02:43.102Z,19.69
2017-08-31T13:04:05.592Z,19.4
2017-08-31T13:05:28.092Z,19.31
2017-08-31T13:06:50.615Z,19.22
2017-08-31T13:08:13.112Z,19.21
2017-08-31T13:09:35.590Z,19.21
2017-08-31T13:10:57.762Z,19.18
2017-08-31T13:12:19.961Z,19.04
2017-08-31T13:13:41.791Z,18.98
2017-08-31T13:15:04.283Z,18.88
2017-08-31T13:16:26.451Z,18.72
2017-08-31T13:17:48.773Z,18.55
2017-08-31T13:19:10.912Z,18.54
2017-08-31T13:20:33.298Z,18.54
2017-08-31T13:21:55.334Z,18.42
2017-08-31T13:23:17.922Z,18.32
2017-08-31T13:24:40.412Z,18.35
2017-08-31T13:26:02.592Z,18.36
2017-08-31T13:27:24.744Z,18.36
2017-08-31T13:28:47.335Z,18.62
2017-08-31T13:30:09.504Z,18.92
2017-08-31T13:31:31.662Z,19.14
2017-08-31T13:32:54.183Z,19.08
2017-08-31T13:34:16.652Z,19.37
2017-08-31T13:35:38.576Z,19.4
2017-08-31T13:37:01.087Z,19.33
2017-08-31T13:38:23.585Z,18.84
2017-08-31T13:39:46.393Z,18.76
2017-08-31T13:41:08.553Z,19.06
2017-08-31T13:42:30.722Z,19.33
2017-08-31T13:43:53.283Z,19.63
2017-08-31T13:45:16.076Z,20.01
2017-08-31T13:46:37.917Z,20.21
2017-08-31T13:47:59.769Z,20.32
2017-08-31T13:49:22.770Z,20.2
2017-08-31T13:50:45.388Z,20.1
2017-08-31T13:52:07.762Z,20.11
2017-08-31T13:53:29.272Z,19.95
2017-08-31T13:54:51.104Z,20.14
2017-08-31T13:56:13.953Z,20.26
2017-08-31T13:57:36.121Z,20.35
2017-08-31T13:58:57.951Z,20.32
2017-08-31T14:00:20.457Z,20.5
2017-08-31T14:01:43.003Z,20.67
2017-08-31T14:03:05.504Z,20.76
2017-08-31T14:04:27.694Z,20.55
2017-08-31T14:05:49.631Z,20.57
2017-08-31T14:07:12.472Z,20.61
2017-08-31T14:08:34.405Z,20.57
2017-08-31T14:09:56.918Z,20.48
2017-08-31T14:11:19.153Z,20.57
2017-08-31T14:12:42.073Z,20.39
2017-08-31T14:14:04.566Z,19.95
2017-08-31T14:15:27.052Z,20.26
2017-08-31T14:16:49.043Z,20.32
2017-08-31T14:18:11.642Z,20.36
2017-08-31T14:19:34.132Z,20.39
2017-08-31T14:20:56.432Z,20.32
2017-08-31T14:22:17.992Z,20.24
2017-08-31T14:23:40.588Z,19.54
2017-08-31T14:25:03.087Z,19.44
2017-08-31T14:26:24.633Z,19.02
2017-08-31T14:27:47.122Z,18.98
2017-08-31T14:29:09.546Z,18.85
2017-08-31T14:30:31.765Z,18.76
2017-08-31T14:31:54.234Z,18.63
2017-08-31T14:33:16.897Z,18.3
2017-08-31T14:34:38.994Z,18.11
2017-08-31T14:36:01.514Z,18.05
2017-08-31T14:37:23.683Z,17.89
2017-08-31T14:38:46.193Z,17.82
2017-08-31T14:40:08.684Z,17.81
2017-08-31T14:41:30.563Z,17.78
2017-08-31T14:42:53.071Z,17.84
2017-08-31T14:44:15.360Z,17.86
2017-08-31T14:45:37.703Z,17.81
2017-08-31T14:47:00.322Z,17.84
2017-08-31T14:48:22.511Z,17.9
2017-08-31T14:49:44.052Z,18.05
2017-08-31T14:51:06.937Z,18.26
2017-08-31T14:52:28.966Z,18.27
2017-08-31T14:53:51.273Z,18.51
2017-08-31T14:55:13.817Z,18.58
2017-08-31T14:56:36.858Z,18.54
2017-08-31T14:57:59.481Z,18.66
2017-08-31T14:59:21.383Z,18.52
2017-08-31T15:00:43.564Z,18.6
2017-08-31T15:02:06.012Z,18.69
2017-08-31T15:03:28.552Z,18.78
2017-08-31T15:04:50.833Z,19.04
2017-08-31T15:06:13.350Z,19.14
2017-08-31T15:07:36.177Z,19.08
2017-08-31T15:08:58.392Z,19.16
2017-08-31T15:10:20.585Z,19.16
2017-08-31T15:11:43.083Z,19.23
2017-08-31T15:13:05.567Z,19.18
2017-08-31T15:14:28.094Z,19.08
2017-08-31T15:15:50.261Z,19.1
2017-08-31T15:17:12.643Z,18.94
2017-08-31T15:18:35.393Z,18.95
2017-08-31T15:19:57.948Z,19.07
2017-08-31T15:21:20.153Z,19.11
2017-08-31T15:22:42.644Z,19.13
2017-08-31T15:24:05.181Z,19.22
2017-08-31T15:25:27.065Z,19.39
2017-08-31T15:26:49.309Z,19.32
2017-08-31T15:28:11.514Z,19.29
2017-08-31T15:29:34.374Z,19.19
2017-08-31T15:30:56.561Z,19.08
2017-08-31T15:32:18.414Z,18.84
2017-08-31T15:33:40.904Z,18.78
2017-08-31T15:35:03.364Z,18.62
2017-08-31T15:36:25.554Z,18.57
2017-08-31T15:37:48.043Z,18.52
2017-08-31T15:39:10.542Z,18.47
2017-08-31T15:40:33.283Z,18.37
2017-08-31T15:41:55.873Z,18.3
2017-08-31T15:43:18.369Z,18.33
2017-08-31T15:44:40.876Z,18.33
2017-08-31T15:46:03.872Z,18.21
2017-08-31T15:47:26.343Z,18.23
2017-08-31T15:48:48.199Z,18.25
2017-08-31T15:50:10.365Z,18.18
2017-08-31T15:51:32.852Z,18.18
2017-08-31T15:52:55.033Z,18.33
2017-08-31T15:54:17.235Z,18.32
2017-08-31T15:55:39.474Z,18.42
2017-08-31T15:57:01.943Z,18.62
2017-08-31T15:58:24.262Z,18.69
2017-08-31T15:59:46.435Z,18.75
2017-08-31T16:01:08.584Z,18.87
2017-08-31T16:02:31.014Z,18.98
2017-08-31T16:03:53.177Z,19.04
2017-08-31T16:05:15.364Z,19.23
2017-08-31T16:06:37.213Z,19.29
2017-08-31T16:07:59.674Z,19.43
2017-08-31T16:09:21.557Z,19.48
2017-08-31T16:10:44.194Z,19.33
2017-08-31T16:12:06.065Z,19.31
2017-08-31T16:13:28.476Z,19.26
2017-08-31T16:14:50.973Z,19.19
2017-08-31T16:16:13.469Z,19.29
2017-08-31T16:17:36.015Z,19.23
2017-08-31T16:18:58.141Z,19.32
2017-08-31T16:20:20.652Z,19.28
2017-08-31T16:21:42.182Z,19.33
2017-08-31T16:23:04.726Z,19.37
2017-08-31T16:24:27.206Z,19.43
2017-08-31T16:25:49.064Z,19.39
2017-08-31T16:27:11.255Z,19.26
2017-08-31T16:28:33.440Z,19.25
2017-08-31T16:29:56.294Z,19.21
2017-08-31T16:31:18.441Z,19.19
2017-08-31T16:32:40.648Z,19.31
2017-08-31T16:34:02.823Z,19.19
2017-08-31T16:35:25.364Z,19.21
2017-08-31T16:36:47.563Z,19.13
2017-08-31T16:38:09.835Z,19.11
2017-08-31T16:39:32.040Z,18.92
2017-08-31T16:40:54.523Z,18.78
2017-08-31T16:42:16.786Z,18.81
2017-08-31T16:43:38.954Z,18.75
2017-08-31T16:45:01.146Z,18.7
2017-08-31T16:46:23.996Z,18.73
2017-08-31T16:47:45.689Z,18.82
2017-08-31T16:49:08.241Z,18.91
2017-08-31T16:50:30.504Z,18.98
2017-08-31T16:51:52.987Z,19
2017-08-31T16:53:15.388Z,18.92
2017-08-31T16:54:37.559Z,18.98
2017-08-31T16:56:00.068Z,19
2017-08-31T16:57:22.897Z,18.92
2017-08-31T16:58:45.083Z,18.91
2017-08-31T17:00:07.593Z,19
2017-08-31T17:01:30.235Z,18.94
2017-08-31T17:02:52.643Z,19.08
2017-08-31T17:04:14.861Z,19.07
2017-08-31T17:05:37.054Z,18.95
2017-08-31T17:06:59.583Z,18.92
2017-08-31T17:08:21.886Z,18.95
2017-08-31T17:09:44.105Z,18.95
2017-08-31T17:11:06.703Z,18.87
2017-08-31T17:12:28.572Z,18.75
2017-08-31T17:13:50.733Z,18.7
2017-08-31T17:15:13.004Z,18.57
2017-08-31T17:16:35.633Z,18.33
2017-08-31T17:17:57.832Z,18.25
2017-08-31T17:19:20.603Z,18.17
2017-08-31T17:20:42.133Z,18.03
2017-08-31T17:22:04.694Z,17.96
2017-08-31T17:23:26.606Z,17.86
2017-08-31T17:24:48.723Z,17.7
2017-08-31T17:26:10.902Z,17.51
2017-08-31T17:27:33.104Z,17.48
2017-08-31T17:28:55.734Z,17.46
2017-08-31T17:30:18.154Z,17.37
2017-08-31T17:31:40.433Z,17.23
2017-08-31T17:33:02.648Z,17.19
2017-08-31T17:34:24.513Z,17.12
2017-08-31T17:35:47.073Z,17.01
2017-08-31T17:37:08.623Z,16.96
2017-08-31T17:38:30.290Z,16.93
2017-08-31T17:39:52.976Z,16.91
2017-08-31T17:41:15.844Z,16.81
2017-08-31T17:42:38.016Z,16.76